sensor_id;sensor_type;location;lat;lon;timestamp;temperature;humidity
336;DHT22;156;48.738;9.228;2023-07-02T00:00:28;16.20;99.90
336;DHT22;156;48.738;9.228;2023-07-02T00:02:55;16.20;99.90
336;DHT22;156;48.738;9.228;2023-07-02T00:05:22;16.20;99.90
336;DHT22;156;48.738;9.228;2023-07-02T00:07:49;16.20;99.90
336;DHT22;156;48.738;9.228;2023-07-02T00:10:16;16.20;99.90
336;DHT22;156;48.738;9.228;2023-07-02T00:12:43;16.20;99.90
336;DHT22;156;48.738;9.228;2023-07-02T00:15:12;16.20;99.90
336;DHT22;156;48.738;9.228;2023-07-02T00:17:39;16.20;99.90
336;DHT22;156;48.738;9.228;2023-07-02T00:20:07;16.20;99.90
336;DHT22;156;48.738;9.228;2023-07-02T00:22:39;16.20;99.90
336;DHT22;156;48.738;9.228;2023-07-02T00:25:10;16.20;99.90
336;DHT22;156;48.738;9.228;2023-07-02T00:27:37;16.20;99.90
336;DHT22;156;48.738;9.228;2023-07-02T00:30:04;16.30;99.90
336;DHT22;156;48.738;9.228;2023-07-02T00:32:33;16.20;99.90
336;DHT22;156;48.738;9.228;2023-07-02T00:35:00;16.20;99.90
336;DHT22;156;48.738;9.228;2023-07-02T00:37:27;16.10;99.90
336;DHT22;156;48.738;9.228;2023-07-02T00:39:54;16.20;99.90
336;DHT22;156;48.738;9.228;2023-07-02T00:42:20;16.20;99.90
336;DHT22;156;48.738;9.228;2023-07-02T00:44:49;16.10;99.90
336;DHT22;156;48.738;9.228;2023-07-02T00:47:18;16.10;99.90
336;DHT22;156;48.738;9.228;2023-07-02T00:49:46;16.10;99.90
336;DHT22;156;48.738;9.228;2023-07-02T00:52:13;16.10;99.90
336;DHT22;156;48.738;9.228;2023-07-02T00:54:40;16.10;99.90
336;DHT22;156;48.738;9.228;2023-07-02T00:57:07;16.10;99.90
336;DHT22;156;48.738;9.228;2023-07-02T00:59:34;16.10;99.90
336;DHT22;156;48.738;9.228;2023-07-02T01:02:03;16.10;99.90
336;DHT22;156;48.738;9.228;2023-07-02T01:04:32;16.10;99.90
336;DHT22;156;48.738;9.228;2023-07-02T01:07:00;16.10;99.90
336;DHT22;156;48.738;9.228;2023-07-02T01:09:27;16.10;99.90
336;DHT22;156;48.738;9.228;2023-07-02T01:11:55;16.20;99.90
336;DHT22;156;48.738;9.228;2023-07-02T01:14:26;16.20;99.90
336;DHT22;156;48.738;9.228;2023-07-02T01:16:54;16.10;99.90
336;DHT22;156;48.738;9.228;2023-07-02T01:19:28;16.20;99.90
336;DHT22;156;48.738;9.228;2023-07-02T01:22:00;16.20;99.90
336;DHT22;156;48.738;9.228;2023-07-02T01:24:28;16.30;99.90
336;DHT22;156;48.738;9.228;2023-07-02T01:26:55;16.30;99.90
336;DHT22;156;48.738;9.228;2023-07-02T01:29:25;16.30;99.90
336;DHT22;156;48.738;9.228;2023-07-02T01:31:52;16.20;99.90
336;DHT22;156;48.738;9.228;2023-07-02T01:34:19;16.10;99.90
336;DHT22;156;48.738;9.228;2023-07-02T01:36:47;16.10;99.90
336;DHT22;156;48.738;9.228;2023-07-02T01:39:14;16.10;99.90
336;DHT22;156;48.738;9.228;2023-07-02T01:41:44;16.00;99.90
336;DHT22;156;48.738;9.228;2023-07-02T01:44:11;16.00;99.90
336;DHT22;156;48.738;9.228;2023-07-02T01:46:38;16.00;99.90
336;DHT22;156;48.738;9.228;2023-07-02T01:49:05;16.00;99.90
336;DHT22;156;48.738;9.228;2023-07-02T01:51:32;16.00;99.90
336;DHT22;156;48.738;9.228;2023-07-02T01:54:00;16.00;99.90
336;DHT22;156;48.738;9.228;2023-07-02T01:56:27;15.90;99.90
336;DHT22;156;48.738;9.228;2023-07-02T01:58:54;16.00;99.90
336;DHT22;156;48.738;9.228;2023-07-02T02:01:21;16.10;99.90
336;DHT22;156;48.738;9.228;2023-07-02T02:03:48;16.10;99.90
336;DHT22;156;48.738;9.228;2023-07-02T02:06:15;16.10;99.90
336;DHT22;156;48.738;9.228;2023-07-02T02:08:42;16.10;99.90
336;DHT22;156;48.738;9.228;2023-07-02T02:11:10;16.20;99.90
336;DHT22;156;48.738;9.228;2023-07-02T02:13:37;16.20;99.90
336;DHT22;156;48.738;9.228;2023-07-02T02:16:04;16.20;99.90
336;DHT22;156;48.738;9.228;2023-07-02T02:18:31;16.20;99.90
336;DHT22;156;48.738;9.228;2023-07-02T02:20:58;16.40;99.90
336;DHT22;156;48.738;9.228;2023-07-02T02:23:25;16.50;99.90
336;DHT22;156;48.738;9.228;2023-07-02T02:25:52;16.60;99.90
336;DHT22;156;48.738;9.228;2023-07-02T02:28:20;16.60;99.90
336;DHT22;156;48.738;9.228;2023-07-02T02:30:47;16.50;99.90
336;DHT22;156;48.738;9.228;2023-07-02T02:33:14;16.50;99.90
336;DHT22;156;48.738;9.228;2023-07-02T02:35:41;16.60;99.90
336;DHT22;156;48.738;9.228;2023-07-02T02:38:08;16.60;99.90
336;DHT22;156;48.738;9.228;2023-07-02T02:40:34;16.70;99.90
336;DHT22;156;48.738;9.228;2023-07-02T02:43:01;16.70;99.90
336;DHT22;156;48.738;9.228;2023-07-02T02:45:30;16.70;99.90
336;DHT22;156;48.738;9.228;2023-07-02T02:47:57;16.70;99.90
336;DHT22;156;48.738;9.228;2023-07-02T02:50:24;16.70;99.90
336;DHT22;156;48.738;9.228;2023-07-02T02:52:51;16.70;99.90
336;DHT22;156;48.738;9.228;2023-07-02T02:55:18;16.70;99.90
336;DHT22;156;48.738;9.228;2023-07-02T02:57:45;16.70;99.90
336;DHT22;156;48.738;9.228;2023-07-02T03:00:12;16.70;99.90
336;DHT22;156;48.738;9.228;2023-07-02T03:02:41;16.70;99.90
336;DHT22;156;48.738;9.228;2023-07-02T03:05:08;16.60;99.90
336;DHT22;156;48.738;9.228;2023-07-02T03:07:35;16.60;99.90
336;DHT22;156;48.738;9.228;2023-07-02T03:10:02;16.40;99.90
336;DHT22;156;48.738;9.228;2023-07-02T03:12:29;16.40;99.90
336;DHT22;156;48.738;9.228;2023-07-02T03:14:56;16.30;99.90
336;DHT22;156;48.738;9.228;2023-07-02T03:17:23;16.20;99.90
336;DHT22;156;48.738;9.228;2023-07-02T03:19:52;16.20;99.90
336;DHT22;156;48.738;9.228;2023-07-02T03:22:19;16.10;99.90
336;DHT22;156;48.738;9.228;2023-07-02T03:24:45;16.00;99.90
336;DHT22;156;48.738;9.228;2023-07-02T03:27:12;16.00;99.90
336;DHT22;156;48.738;9.228;2023-07-02T03:29:39;15.90;99.90
336;DHT22;156;48.738;9.228;2023-07-02T03:32:07;15.80;99.90
336;DHT22;156;48.738;9.228;2023-07-02T03:34:34;15.40;99.90
336;DHT22;156;48.738;9.228;2023-07-02T03:37:02;15.20;99.90
336;DHT22;156;48.738;9.228;2023-07-02T03:39:29;15.00;99.90
336;DHT22;156;48.738;9.228;2023-07-02T03:41:56;15.00;99.90
336;DHT22;156;48.738;9.228;2023-07-02T03:44:25;14.80;99.90
336;DHT22;156;48.738;9.228;2023-07-02T03:46:52;14.90;99.90
336;DHT22;156;48.738;9.228;2023-07-02T03:49:19;14.80;99.90
336;DHT22;156;48.738;9.228;2023-07-02T03:51:46;14.70;99.90
336;DHT22;156;48.738;9.228;2023-07-02T03:54:14;14.60;99.90
336;DHT22;156;48.738;9.228;2023-07-02T03:56:41;14.50;99.90
336;DHT22;156;48.738;9.228;2023-07-02T03:59:11;14.40;99.90
336;DHT22;156;48.738;9.228;2023-07-02T04:01:38;14.30;99.90
336;DHT22;156;48.738;9.228;2023-07-02T04:04:05;14.40;99.90
336;DHT22;156;48.738;9.228;2023-07-02T04:06:32;14.30;99.90
336;DHT22;156;48.738;9.228;2023-07-02T04:08:59;14.30;99.90
336;DHT22;156;48.738;9.228;2023-07-02T04:11:28;14.30;99.90
336;DHT22;156;48.738;9.228;2023-07-02T04:13:54;14.20;99.90
336;DHT22;156;48.738;9.228;2023-07-02T04:16:21;14.10;99.90
336;DHT22;156;48.738;9.228;2023-07-02T04:18:48;14.10;99.90
336;DHT22;156;48.738;9.228;2023-07-02T04:21:15;14.10;99.90
336;DHT22;156;48.738;9.228;2023-07-02T04:23:42;14.10;99.90
336;DHT22;156;48.738;9.228;2023-07-02T04:26:09;14.20;99.90
336;DHT22;156;48.738;9.228;2023-07-02T04:28:38;14.10;99.90
336;DHT22;156;48.738;9.228;2023-07-02T04:31:05;14.20;99.90
336;DHT22;156;48.738;9.228;2023-07-02T04:33:32;14.10;99.90
336;DHT22;156;48.738;9.228;2023-07-02T04:36:22;14.20;99.90
336;DHT22;156;48.738;9.228;2023-07-02T04:38:49;13.60;99.90
336;DHT22;156;48.738;9.228;2023-07-02T04:41:36;14.30;99.90
336;DHT22;156;48.738;9.228;2023-07-02T04:44:19;14.40;99.90
336;DHT22;156;48.738;9.228;2023-07-02T04:46:58;14.40;99.90
336;DHT22;156;48.738;9.228;2023-07-02T04:49:28;14.40;99.90
336;DHT22;156;48.738;9.228;2023-07-02T04:51:55;14.40;99.90
336;DHT22;156;48.738;9.228;2023-07-02T04:54:24;14.40;99.90
336;DHT22;156;48.738;9.228;2023-07-02T04:56:51;14.40;99.90
336;DHT22;156;48.738;9.228;2023-07-02T04:59:21;14.40;99.90
336;DHT22;156;48.738;9.228;2023-07-02T05:01:48;14.50;99.90
336;DHT22;156;48.738;9.228;2023-07-02T05:04:15;14.50;99.90
336;DHT22;156;48.738;9.228;2023-07-02T05:06:42;14.60;99.90
336;DHT22;156;48.738;9.228;2023-07-02T05:09:10;14.70;99.90
336;DHT22;156;48.738;9.228;2023-07-02T05:11:40;14.70;99.90
336;DHT22;156;48.738;9.228;2023-07-02T05:14:10;14.80;99.90
336;DHT22;156;48.738;9.228;2023-07-02T05:16:38;14.60;99.90
336;DHT22;156;48.738;9.228;2023-07-02T05:19:05;15.10;99.90
336;DHT22;156;48.738;9.228;2023-07-02T05:21:32;15.30;99.90
336;DHT22;156;48.738;9.228;2023-07-02T05:23:59;15.40;99.90
336;DHT22;156;48.738;9.228;2023-07-02T05:26:26;15.50;99.90
336;DHT22;156;48.738;9.228;2023-07-02T05:28:53;15.50;99.90
336;DHT22;156;48.738;9.228;2023-07-02T05:31:20;15.60;99.90
336;DHT22;156;48.738;9.228;2023-07-02T05:33:48;15.70;99.90
336;DHT22;156;48.738;9.228;2023-07-02T05:36:15;15.80;99.90
336;DHT22;156;48.738;9.228;2023-07-02T05:38:42;15.70;99.90
336;DHT22;156;48.738;9.228;2023-07-02T05:41:11;15.80;99.90
336;DHT22;156;48.738;9.228;2023-07-02T05:43:38;15.80;99.90
336;DHT22;156;48.738;9.228;2023-07-02T05:46:05;15.80;99.90
336;DHT22;156;48.738;9.228;2023-07-02T05:48:33;15.90;99.90
336;DHT22;156;48.738;9.228;2023-07-02T05:51:02;15.90;99.90
336;DHT22;156;48.738;9.228;2023-07-02T05:53:29;15.90;99.90
336;DHT22;156;48.738;9.228;2023-07-02T05:55:56;15.90;99.90
336;DHT22;156;48.738;9.228;2023-07-02T05:58:23;16.00;99.90
336;DHT22;156;48.738;9.228;2023-07-02T06:00:50;16.00;99.90
336;DHT22;156;48.738;9.228;2023-07-02T06:03:17;16.00;99.90
336;DHT22;156;48.738;9.228;2023-07-02T06:05:52;16.00;99.90
336;DHT22;156;48.738;9.228;2023-07-02T06:08:20;15.80;99.90
336;DHT22;156;48.738;9.228;2023-07-02T06:10:48;16.00;99.90
336;DHT22;156;48.738;9.228;2023-07-02T06:13:15;16.10;99.90
336;DHT22;156;48.738;9.228;2023-07-02T06:15:42;16.10;99.90
336;DHT22;156;48.738;9.228;2023-07-02T06:18:09;16.20;99.90
336;DHT22;156;48.738;9.228;2023-07-02T06:20:36;16.20;99.90
336;DHT22;156;48.738;9.228;2023-07-02T06:23:03;16.20;99.90
336;DHT22;156;48.738;9.228;2023-07-02T06:25:31;16.20;99.90
336;DHT22;156;48.738;9.228;2023-07-02T06:27:59;16.20;99.90
336;DHT22;156;48.738;9.228;2023-07-02T06:30:26;16.30;99.90
336;DHT22;156;48.738;9.228;2023-07-02T06:32:53;16.30;99.90
336;DHT22;156;48.738;9.228;2023-07-02T06:35:23;16.40;99.30
336;DHT22;156;48.738;9.228;2023-07-02T06:37:51;16.40;97.50
336;DHT22;156;48.738;9.228;2023-07-02T06:40:18;16.50;87.10
336;DHT22;156;48.738;9.228;2023-07-02T06:42:46;16.50;84.90
336;DHT22;156;48.738;9.228;2023-07-02T06:45:13;16.60;79.10
336;DHT22;156;48.738;9.228;2023-07-02T06:47:43;16.60;78.40
336;DHT22;156;48.738;9.228;2023-07-02T06:50:10;16.50;52.40
336;DHT22;156;48.738;9.228;2023-07-02T06:52:37;16.70;67.00
336;DHT22;156;48.738;9.228;2023-07-02T06:55:04;16.70;67.40
336;DHT22;156;48.738;9.228;2023-07-02T06:57:33;16.80;71.50
336;DHT22;156;48.738;9.228;2023-07-02T07:00:02;17.00;75.20
336;DHT22;156;48.738;9.228;2023-07-02T07:02:30;17.00;68.50
336;DHT22;156;48.738;9.228;2023-07-02T07:04:59;17.00;64.40
336;DHT22;156;48.738;9.228;2023-07-02T07:07:32;16.90;61.30
336;DHT22;156;48.738;9.228;2023-07-02T07:10:10;16.90;58.00
336;DHT22;156;48.738;9.228;2023-07-02T07:12:40;16.90;57.50
336;DHT22;156;48.738;9.228;2023-07-02T07:15:09;16.80;47.20
336;DHT22;156;48.738;9.228;2023-07-02T07:17:39;16.70;51.80
336;DHT22;156;48.738;9.228;2023-07-02T07:20:06;16.70;52.20
336;DHT22;156;48.738;9.228;2023-07-02T07:22:33;16.80;46.50
336;DHT22;156;48.738;9.228;2023-07-02T07:25:00;16.80;43.30
336;DHT22;156;48.738;9.228;2023-07-02T07:27:28;16.90;47.70
336;DHT22;156;48.738;9.228;2023-07-02T07:30:01;17.00;44.60
336;DHT22;156;48.738;9.228;2023-07-02T07:32:31;17.00;31.80
336;DHT22;156;48.738;9.228;2023-07-02T07:34:57;16.90;24.10
336;DHT22;156;48.738;9.228;2023-07-02T07:37:24;17.00;24.00
336;DHT22;156;48.738;9.228;2023-07-02T07:39:52;16.80;27.30
336;DHT22;156;48.738;9.228;2023-07-02T07:42:19;17.10;18.80
336;DHT22;156;48.738;9.228;2023-07-02T07:44:46;17.20;16.40
336;DHT22;156;48.738;9.228;2023-07-02T07:47:13;17.20;2.10
336;DHT22;156;48.738;9.228;2023-07-02T07:49:42;17.40;1.00
336;DHT22;156;48.738;9.228;2023-07-02T07:52:09;17.50;1.00
336;DHT22;156;48.738;9.228;2023-07-02T07:54:38;17.50;1.00
336;DHT22;156;48.738;9.228;2023-07-02T07:57:06;17.50;1.00
336;DHT22;156;48.738;9.228;2023-07-02T07:59:33;17.60;1.00
336;DHT22;156;48.738;9.228;2023-07-02T08:02:01;17.50;1.00
336;DHT22;156;48.738;9.228;2023-07-02T08:04:28;17.50;1.00
336;DHT22;156;48.738;9.228;2023-07-02T08:06:56;17.50;1.00
336;DHT22;156;48.738;9.228;2023-07-02T08:09:23;17.50;1.00
336;DHT22;156;48.738;9.228;2023-07-02T08:11:50;17.60;1.00
336;DHT22;156;48.738;9.228;2023-07-02T08:14:17;17.60;1.00
336;DHT22;156;48.738;9.228;2023-07-02T08:16:44;17.70;1.00
336;DHT22;156;48.738;9.228;2023-07-02T08:19:11;17.90;1.00
336;DHT22;156;48.738;9.228;2023-07-02T08:21:38;18.10;1.00
336;DHT22;156;48.738;9.228;2023-07-02T08:24:07;18.00;1.00
336;DHT22;156;48.738;9.228;2023-07-02T08:26:33;18.10;1.00
336;DHT22;156;48.738;9.228;2023-07-02T08:29:03;18.10;1.00
336;DHT22;156;48.738;9.228;2023-07-02T08:31:30;18.20;1.00
336;DHT22;156;48.738;9.228;2023-07-02T08:33:57;18.30;1.00
336;DHT22;156;48.738;9.228;2023-07-02T08:36:24;18.40;1.00
336;DHT22;156;48.738;9.228;2023-07-02T08:38:51;18.60;1.00
336;DHT22;156;48.738;9.228;2023-07-02T08:41:20;18.30;1.00
336;DHT22;156;48.738;9.228;2023-07-02T08:43:47;18.30;1.00
336;DHT22;156;48.738;9.228;2023-07-02T08:46:15;18.30;1.00
336;DHT22;156;48.738;9.228;2023-07-02T08:48:44;18.30;1.00
336;DHT22;156;48.738;9.228;2023-07-02T08:51:13;18.20;1.00
336;DHT22;156;48.738;9.228;2023-07-02T08:53:40;18.20;1.00
336;DHT22;156;48.738;9.228;2023-07-02T08:56:06;18.20;1.00
336;DHT22;156;48.738;9.228;2023-07-02T08:58:35;18.10;1.00
336;DHT22;156;48.738;9.228;2023-07-02T09:01:15;18.10;1.00
336;DHT22;156;48.738;9.228;2023-07-02T09:03:42;18.30;1.00
336;DHT22;156;48.738;9.228;2023-07-02T09:06:09;18.60;1.00
336;DHT22;156;48.738;9.228;2023-07-02T09:08:37;18.60;1.00
336;DHT22;156;48.738;9.228;2023-07-02T09:11:08;18.80;1.00
336;DHT22;156;48.738;9.228;2023-07-02T09:13:47;19.00;1.00
336;DHT22;156;48.738;9.228;2023-07-02T09:16:24;19.10;1.00
336;DHT22;156;48.738;9.228;2023-07-02T09:19:02;19.20;1.00
336;DHT22;156;48.738;9.228;2023-07-02T09:21:39;19.10;1.00
336;DHT22;156;48.738;9.228;2023-07-02T09:24:16;19.10;1.00
336;DHT22;156;48.738;9.228;2023-07-02T09:26:45;19.00;1.00
336;DHT22;156;48.738;9.228;2023-07-02T09:29:13;19.00;1.00
336;DHT22;156;48.738;9.228;2023-07-02T09:31:44;19.10;1.00
336;DHT22;156;48.738;9.228;2023-07-02T09:34:11;18.90;1.00
336;DHT22;156;48.738;9.228;2023-07-02T09:36:38;19.10;1.00
336;DHT22;156;48.738;9.228;2023-07-02T09:39:07;19.30;1.00
336;DHT22;156;48.738;9.228;2023-07-02T09:41:35;19.40;1.00
336;DHT22;156;48.738;9.228;2023-07-02T09:44:02;19.40;1.00
336;DHT22;156;48.738;9.228;2023-07-02T09:46:32;19.60;1.00
336;DHT22;156;48.738;9.228;2023-07-02T09:48:59;19.70;1.00
336;DHT22;156;48.738;9.228;2023-07-02T09:51:27;19.90;1.00
336;DHT22;156;48.738;9.228;2023-07-02T09:53:54;20.00;1.00
336;DHT22;156;48.738;9.228;2023-07-02T09:56:21;20.10;1.00
336;DHT22;156;48.738;9.228;2023-07-02T09:58:48;20.20;1.00
336;DHT22;156;48.738;9.228;2023-07-02T10:01:15;20.20;1.00
336;DHT22;156;48.738;9.228;2023-07-02T10:03:44;19.90;1.00
336;DHT22;156;48.738;9.228;2023-07-02T10:06:11;20.20;1.00
336;DHT22;156;48.738;9.228;2023-07-02T10:08:37;20.10;1.00
336;DHT22;156;48.738;9.228;2023-07-02T10:11:11;20.00;1.00
336;DHT22;156;48.738;9.228;2023-07-02T10:13:39;20.00;1.00
336;DHT22;156;48.738;9.228;2023-07-02T10:16:07;20.20;1.00
336;DHT22;156;48.738;9.228;2023-07-02T10:18:34;20.10;1.00
336;DHT22;156;48.738;9.228;2023-07-02T10:21:15;20.10;1.00
336;DHT22;156;48.738;9.228;2023-07-02T10:23:42;20.10;1.00
336;DHT22;156;48.738;9.228;2023-07-02T10:26:16;20.40;1.00
336;DHT22;156;48.738;9.228;2023-07-02T10:28:56;20.50;1.00
336;DHT22;156;48.738;9.228;2023-07-02T10:31:23;20.40;1.00
336;DHT22;156;48.738;9.228;2023-07-02T10:33:50;20.30;1.00
336;DHT22;156;48.738;9.228;2023-07-02T10:36:22;20.60;1.00
336;DHT22;156;48.738;9.228;2023-07-02T10:38:50;20.70;1.00
336;DHT22;156;48.738;9.228;2023-07-02T10:41:24;20.70;1.00
336;DHT22;156;48.738;9.228;2023-07-02T10:43:52;20.60;1.00
336;DHT22;156;48.738;9.228;2023-07-02T10:46:19;20.20;1.00
336;DHT22;156;48.738;9.228;2023-07-02T10:48:53;20.10;1.00
336;DHT22;156;48.738;9.228;2023-07-02T10:51:22;20.30;1.00
336;DHT22;156;48.738;9.228;2023-07-02T10:53:58;20.50;1.00
336;DHT22;156;48.738;9.228;2023-07-02T10:56:30;20.60;1.00
336;DHT22;156;48.738;9.228;2023-07-02T10:58:58;20.70;1.00
336;DHT22;156;48.738;9.228;2023-07-02T11:01:25;20.30;1.00
336;DHT22;156;48.738;9.228;2023-07-02T11:03:57;20.30;1.00
336;DHT22;156;48.738;9.228;2023-07-02T11:06:26;20.20;1.00
336;DHT22;156;48.738;9.228;2023-07-02T11:08:53;20.40;1.00
336;DHT22;156;48.738;9.228;2023-07-02T11:11:22;20.80;1.00
336;DHT22;156;48.738;9.228;2023-07-02T11:13:50;21.00;1.00
336;DHT22;156;48.738;9.228;2023-07-02T11:16:21;21.00;1.00
336;DHT22;156;48.738;9.228;2023-07-02T11:18:51;21.20;1.00
336;DHT22;156;48.738;9.228;2023-07-02T11:21:20;21.40;1.00
336;DHT22;156;48.738;9.228;2023-07-02T11:23:48;21.40;1.00
336;DHT22;156;48.738;9.228;2023-07-02T11:26:15;21.40;1.00
336;DHT22;156;48.738;9.228;2023-07-02T11:28:49;21.50;1.00
336;DHT22;156;48.738;9.228;2023-07-02T11:31:25;21.50;1.00
336;DHT22;156;48.738;9.228;2023-07-02T11:33:52;21.50;1.00
336;DHT22;156;48.738;9.228;2023-07-02T11:36:20;21.40;1.00
336;DHT22;156;48.738;9.228;2023-07-02T11:38:54;21.20;1.00
336;DHT22;156;48.738;9.228;2023-07-02T11:41:21;21.20;1.00
336;DHT22;156;48.738;9.228;2023-07-02T11:43:48;21.30;1.00
336;DHT22;156;48.738;9.228;2023-07-02T11:46:15;21.40;1.00
336;DHT22;156;48.738;9.228;2023-07-02T11:48:42;21.50;1.00
336;DHT22;156;48.738;9.228;2023-07-02T11:51:09;21.40;1.00
336;DHT22;156;48.738;9.228;2023-07-02T11:53:38;21.70;1.00
336;DHT22;156;48.738;9.228;2023-07-02T11:56:07;21.90;1.00
336;DHT22;156;48.738;9.228;2023-07-02T11:58:40;22.00;1.00
336;DHT22;156;48.738;9.228;2023-07-02T12:01:08;22.10;1.00
336;DHT22;156;48.738;9.228;2023-07-02T12:03:35;22.20;1.00
336;DHT22;156;48.738;9.228;2023-07-02T12:06:02;22.50;1.00
336;DHT22;156;48.738;9.228;2023-07-02T12:08:29;22.50;1.00
336;DHT22;156;48.738;9.228;2023-07-02T12:10:56;22.30;1.00
336;DHT22;156;48.738;9.228;2023-07-02T12:13:24;22.00;1.00
336;DHT22;156;48.738;9.228;2023-07-02T12:15:51;22.20;1.00
336;DHT22;156;48.738;9.228;2023-07-02T12:18:18;22.40;1.00
336;DHT22;156;48.738;9.228;2023-07-02T12:20:45;22.10;1.00
336;DHT22;156;48.738;9.228;2023-07-02T12:23:12;22.00;1.00
336;DHT22;156;48.738;9.228;2023-07-02T12:25:41;21.70;1.00
336;DHT22;156;48.738;9.228;2023-07-02T12:28:08;22.00;1.00
336;DHT22;156;48.738;9.228;2023-07-02T12:30:37;22.00;1.00
336;DHT22;156;48.738;9.228;2023-07-02T12:33:03;21.80;1.00
336;DHT22;156;48.738;9.228;2023-07-02T12:35:30;22.20;1.00
336;DHT22;156;48.738;9.228;2023-07-02T12:38:00;22.70;1.00
336;DHT22;156;48.738;9.228;2023-07-02T12:40:29;22.80;1.00
336;DHT22;156;48.738;9.228;2023-07-02T12:42:56;22.80;1.00
336;DHT22;156;48.738;9.228;2023-07-02T12:45:23;22.60;1.00
336;DHT22;156;48.738;9.228;2023-07-02T12:47:51;22.60;1.00
336;DHT22;156;48.738;9.228;2023-07-02T12:50:18;22.80;1.00
336;DHT22;156;48.738;9.228;2023-07-02T12:52:45;23.20;1.00
336;DHT22;156;48.738;9.228;2023-07-02T12:55:12;23.30;1.00
336;DHT22;156;48.738;9.228;2023-07-02T12:57:39;23.20;1.00
336;DHT22;156;48.738;9.228;2023-07-02T13:00:07;23.80;1.00
336;DHT22;156;48.738;9.228;2023-07-02T13:02:34;23.70;1.00
336;DHT22;156;48.738;9.228;2023-07-02T13:05:03;23.60;1.00
336;DHT22;156;48.738;9.228;2023-07-02T13:07:30;23.80;1.00
336;DHT22;156;48.738;9.228;2023-07-02T13:09:57;23.80;1.00
336;DHT22;156;48.738;9.228;2023-07-02T13:12:24;23.50;1.00
336;DHT22;156;48.738;9.228;2023-07-02T13:14:51;23.70;1.00
336;DHT22;156;48.738;9.228;2023-07-02T13:17:17;24.20;1.00
336;DHT22;156;48.738;9.228;2023-07-02T13:19:46;24.40;1.00
336;DHT22;156;48.738;9.228;2023-07-02T13:22:15;24.30;1.00
336;DHT22;156;48.738;9.228;2023-07-02T13:24:43;24.60;1.00
336;DHT22;156;48.738;9.228;2023-07-02T13:27:13;24.30;1.00
336;DHT22;156;48.738;9.228;2023-07-02T13:29:41;24.80;1.00
336;DHT22;156;48.738;9.228;2023-07-02T13:32:09;24.90;1.00
336;DHT22;156;48.738;9.228;2023-07-02T13:34:36;25.00;1.00
336;DHT22;156;48.738;9.228;2023-07-02T13:37:04;25.50;1.00
336;DHT22;156;48.738;9.228;2023-07-02T13:39:33;25.90;1.00
336;DHT22;156;48.738;9.228;2023-07-02T13:42:00;25.70;1.00
336;DHT22;156;48.738;9.228;2023-07-02T13:44:28;25.60;1.00
336;DHT22;156;48.738;9.228;2023-07-02T13:46:55;25.00;1.00
336;DHT22;156;48.738;9.228;2023-07-02T13:49:22;24.90;1.00
336;DHT22;156;48.738;9.228;2023-07-02T13:51:49;24.70;1.00
336;DHT22;156;48.738;9.228;2023-07-02T13:54:17;24.90;1.00
336;DHT22;156;48.738;9.228;2023-07-02T13:56:48;24.90;1.00
336;DHT22;156;48.738;9.228;2023-07-02T13:59:17;24.90;1.00
336;DHT22;156;48.738;9.228;2023-07-02T14:01:45;25.60;1.00
336;DHT22;156;48.738;9.228;2023-07-02T14:04:12;25.90;1.00
336;DHT22;156;48.738;9.228;2023-07-02T14:06:39;25.50;1.00
336;DHT22;156;48.738;9.228;2023-07-02T14:09:06;25.20;1.00
336;DHT22;156;48.738;9.228;2023-07-02T14:11:35;24.90;1.00
336;DHT22;156;48.738;9.228;2023-07-02T14:14:02;25.10;1.00
336;DHT22;156;48.738;9.228;2023-07-02T14:16:32;25.50;1.00
336;DHT22;156;48.738;9.228;2023-07-02T14:18:59;25.60;1.00
336;DHT22;156;48.738;9.228;2023-07-02T14:21:26;25.30;1.00
336;DHT22;156;48.738;9.228;2023-07-02T14:23:52;25.60;1.00
336;DHT22;156;48.738;9.228;2023-07-02T14:26:19;26.00;1.00
336;DHT22;156;48.738;9.228;2023-07-02T14:28:46;25.80;1.00
336;DHT22;156;48.738;9.228;2023-07-02T14:31:13;25.90;1.00
336;DHT22;156;48.738;9.228;2023-07-02T14:33:41;26.00;1.00
336;DHT22;156;48.738;9.228;2023-07-02T14:36:08;24.90;1.00
336;DHT22;156;48.738;9.228;2023-07-02T14:38:38;25.00;1.00
336;DHT22;156;48.738;9.228;2023-07-02T14:41:05;24.90;1.00
336;DHT22;156;48.738;9.228;2023-07-02T14:43:32;25.00;1.00
336;DHT22;156;48.738;9.228;2023-07-02T14:46:01;24.90;1.00
336;DHT22;156;48.738;9.228;2023-07-02T14:48:28;24.90;1.00
336;DHT22;156;48.738;9.228;2023-07-02T14:50:57;25.00;1.00
336;DHT22;156;48.738;9.228;2023-07-02T14:53:25;25.10;1.00
336;DHT22;156;48.738;9.228;2023-07-02T14:55:54;25.00;1.00
336;DHT22;156;48.738;9.228;2023-07-02T14:58:22;25.20;1.00
336;DHT22;156;48.738;9.228;2023-07-02T15:00:51;24.90;1.00
336;DHT22;156;48.738;9.228;2023-07-02T15:03:20;25.10;1.00
336;DHT22;156;48.738;9.228;2023-07-02T15:05:48;25.60;1.00
336;DHT22;156;48.738;9.228;2023-07-02T15:08:18;25.60;1.00
336;DHT22;156;48.738;9.228;2023-07-02T15:10:47;25.10;1.00
336;DHT22;156;48.738;9.228;2023-07-02T15:13:15;24.30;1.00
336;DHT22;156;48.738;9.228;2023-07-02T15:15:44;24.60;1.00
336;DHT22;156;48.738;9.228;2023-07-02T15:18:11;24.90;1.00
336;DHT22;156;48.738;9.228;2023-07-02T15:20:38;24.90;1.00
336;DHT22;156;48.738;9.228;2023-07-02T15:23:05;25.30;1.00
336;DHT22;156;48.738;9.228;2023-07-02T15:25:33;25.50;1.00
336;DHT22;156;48.738;9.228;2023-07-02T15:28:02;25.60;1.00
336;DHT22;156;48.738;9.228;2023-07-02T15:30:29;25.90;1.00
336;DHT22;156;48.738;9.228;2023-07-02T15:32:59;25.70;1.00
336;DHT22;156;48.738;9.228;2023-07-02T15:35:26;25.20;1.00
336;DHT22;156;48.738;9.228;2023-07-02T15:37:55;25.40;1.00
336;DHT22;156;48.738;9.228;2023-07-02T15:40:24;25.70;1.00
336;DHT22;156;48.738;9.228;2023-07-02T15:42:53;25.30;1.00
336;DHT22;156;48.738;9.228;2023-07-02T15:45:26;25.50;1.00
336;DHT22;156;48.738;9.228;2023-07-02T15:47:56;25.90;1.00
336;DHT22;156;48.738;9.228;2023-07-02T15:50:25;26.60;1.00
336;DHT22;156;48.738;9.228;2023-07-02T15:52:53;26.70;1.00
336;DHT22;156;48.738;9.228;2023-07-02T15:55:22;26.60;1.00
336;DHT22;156;48.738;9.228;2023-07-02T15:57:50;25.80;1.00
336;DHT22;156;48.738;9.228;2023-07-02T16:00:19;25.20;1.00
336;DHT22;156;48.738;9.228;2023-07-02T16:02:52;25.30;1.00
336;DHT22;156;48.738;9.228;2023-07-02T16:05:19;25.20;1.00
336;DHT22;156;48.738;9.228;2023-07-02T16:07:46;25.40;1.00
336;DHT22;156;48.738;9.228;2023-07-02T16:10:12;25.50;1.00
336;DHT22;156;48.738;9.228;2023-07-02T16:12:41;25.20;1.00
336;DHT22;156;48.738;9.228;2023-07-02T16:15:09;25.40;1.00
336;DHT22;156;48.738;9.228;2023-07-02T16:17:40;25.90;1.00
336;DHT22;156;48.738;9.228;2023-07-02T16:20:15;26.50;1.00
336;DHT22;156;48.738;9.228;2023-07-02T16:22:42;26.50;1.00
336;DHT22;156;48.738;9.228;2023-07-02T16:25:11;26.50;1.00
336;DHT22;156;48.738;9.228;2023-07-02T16:27:38;26.70;1.00
336;DHT22;156;48.738;9.228;2023-07-02T16:30:06;26.30;1.00
336;DHT22;156;48.738;9.228;2023-07-02T16:32:41;26.50;1.00
336;DHT22;156;48.738;9.228;2023-07-02T16:35:10;26.40;1.00
336;DHT22;156;48.738;9.228;2023-07-02T16:37:42;25.80;1.00
336;DHT22;156;48.738;9.228;2023-07-02T16:40:09;26.60;1.00
336;DHT22;156;48.738;9.228;2023-07-02T16:42:37;26.70;1.00
336;DHT22;156;48.738;9.228;2023-07-02T16:45:08;26.20;1.00
336;DHT22;156;48.738;9.228;2023-07-02T16:47:40;24.60;1.00
336;DHT22;156;48.738;9.228;2023-07-02T16:50:13;24.90;1.00